Time;durP1;ratioP1;P1;durP2;ratioP2;P2;SDS_P1;SDS_P2;PMS_P1;PMS_P2;Temp;Humidity;BMP_temperature;BMP_pressure;BME280_temperature;BME280_humidity;BME280_pressure;Samples;Min_cycle;Max_cycle;Signal;HPM_P1;HPM_P2
2021/05/27 00:02:15;;;;;;;10.00;5.90;;;;;;;17.03;76.85;100532.40;1708350;82;21945;-62
2021/05/27 00:04:43;;;;;;;9.63;6.22;;;;;;;17.04;76.97;100537.40;1708284;84;21398;-62
2021/05/27 00:07:11;;;;;;;9.43;5.70;;;;;;;17.05;77.02;100530.23;1708495;84;21198;-63
2021/05/27 00:09:38;;;;;;;6.85;5.45;;;;;;;17.08;77.01;100531.69;1708345;84;21332;-62
2021/05/27 00:12:07;;;;;;;8.65;5.70;;;;;;;17.10;77.11;100529.53;1708259;82;21179;-62
2021/05/27 00:14:36;;;;;;;10.10;6.40;;;;;;;17.13;77.15;100524.89;1708410;83;21289;-62
2021/05/27 00:17:03;;;;;;;11.90;6.28;;;;;;;17.15;77.19;100529.66;1708304;82;21342;-64
2021/05/27 00:19:30;;;;;;;8.30;5.67;;;;;;;17.15;77.18;100521.34;1708186;83;21282;-64
2021/05/27 00:21:58;;;;;;;9.33;5.78;;;;;;;17.16;77.16;100526.34;1708307;84;21195;-63
2021/05/27 00:24:27;;;;;;;10.60;5.58;;;;;;;17.17;77.19;100524.73;1708135;84;21218;-63
2021/05/27 00:26:54;;;;;;;11.22;6.67;;;;;;;17.20;77.14;100520.63;1708396;82;21504;-64
2021/05/27 00:29:21;;;;;;;8.85;6.70;;;;;;;17.19;77.08;100515.64;1708310;83;21347;-63
2021/05/27 00:31:50;;;;;;;10.00;7.03;;;;;;;17.20;76.93;100522.02;1708382;84;21158;-63
2021/05/27 00:34:19;;;;;;;11.73;6.33;;;;;;;17.19;76.96;100518.41;1708147;83;21869;-63
2021/05/27 00:36:46;;;;;;;8.60;6.10;;;;;;;17.19;76.94;100518.41;1708314;82;21874;-63
2021/05/27 00:39:14;;;;;;;10.82;6.55;;;;;;;17.17;76.87;100510.03;1708306;84;21858;-64
2021/05/27 00:41:41;;;;;;;10.50;7.10;;;;;;;17.13;76.93;100511.05;1708279;83;21210;-62
2021/05/27 00:44:27;;;;;;;9.40;6.87;;;;;;;17.11;77.23;100509.06;1708440;84;21187;-63
2021/05/27 00:46:58;;;;;;;11.48;7.25;;;;;;;17.13;77.34;100512.44;1708486;83;21213;-63
2021/05/27 00:49:26;;;;;;;8.48;6.47;;;;;;;17.09;77.29;100508.45;1708387;84;21890;-64
2021/05/27 00:51:54;;;;;;;9.55;7.00;;;;;;;17.09;77.48;100516.22;1708399;82;21403;-64
2021/05/27 00:54:21;;;;;;;13.18;7.22;;;;;;;17.13;77.55;100509.67;1708244;84;21274;-65
2021/05/27 00:56:50;;;;;;;15.55;8.48;;;;;;;17.13;77.46;100502.75;1708282;84;21289;-62
2021/05/27 00:59:17;;;;;;;13.85;8.80;;;;;;;17.15;77.40;100506.13;1708336;83;21399;-62
2021/05/27 01:01:47;;;;;;;12.50;8.43;;;;;;;17.16;77.25;100506.42;1708452;83;21410;-62
2021/05/27 01:04:15;;;;;;;11.60;7.97;;;;;;;17.14;77.14;100511.36;1708395;83;21258;-63
2021/05/27 01:06:43;;;;;;;11.38;7.28;;;;;;;17.15;77.09;100516.35;1708220;84;21084;-64
2021/05/27 01:09:11;;;;;;;10.38;7.40;;;;;;;17.15;77.07;100508.89;1697988;84;21067;-63
2021/05/27 01:11:39;;;;;;;12.00;7.70;;;;;;;17.12;77.03;100506.59;1708282;84;21232;-63
2021/05/27 01:15:28;;;;;;;11.73;8.20;;;;;;;17.08;77.11;100508.16;1712139;83;21278;-64
2021/05/27 01:16:48;;;;;;;11.43;8.23;;;;;;;17.03;77.14;100512.17;1711574;83;21315;-63
2021/05/27 01:19:16;;;;;;;12.40;8.10;;;;;;;16.96;77.36;100504.52;1713902;83;21052;-63
2021/05/27 01:21:45;;;;;;;11.75;7.65;;;;;;;16.94;77.58;100504.75;1709518;83;21076;-63
2021/05/27 01:24:14;;;;;;;13.03;7.78;;;;;;;16.94;77.66;100504.75;1708855;84;21096;-63
2021/05/27 01:26:42;;;;;;;13.60;8.55;;;;;;;16.93;77.72;100507.22;1708746;84;21187;-63
2021/05/27 01:29:11;;;;;;;11.38;7.72;;;;;;;16.96;77.74;100508.67;1708795;84;21083;-62
2021/05/27 01:31:38;;;;;;;17.02;8.50;;;;;;;16.94;77.72;100506.14;1708811;83;21271;-62
2021/05/27 01:34:10;;;;;;;11.85;7.58;;;;;;;16.94;77.84;100504.75;1708745;83;21048;-64
2021/05/27 01:36:46;;;;;;;10.98;7.22;;;;;;;16.95;77.83;100508.37;1708768;84;21314;-63
2021/05/27 01:39:13;;;;;;;9.15;7.12;;;;;;;16.96;77.91;100509.52;1708819;84;21330;-63
2021/05/27 01:41:41;;;;;;;16.57;8.55;;;;;;;16.98;77.79;100500.97;1708760;84;21305;-63
2021/05/27 01:44:08;;;;;;;13.35;9.20;;;;;;;16.97;77.90;100507.59;1708797;82;21305;-63
2021/05/27 01:46:36;;;;;;;15.28;9.08;;;;;;;16.97;78.00;100506.20;1708720;83;21063;-63
2021/05/27 01:49:04;;;;;;;12.28;7.75;;;;;;;16.98;77.98;100500.97;1708771;83;21095;-63
2021/05/27 01:51:32;;;;;;;13.30;8.15;;;;;;;16.99;77.88;100509.04;1708816;84;21063;-63
2021/05/27 01:54:00;;;;;;;10.68;7.62;;;;;;;17.01;77.78;100507.42;1708802;83;21075;-63
2021/05/27 01:56:29;;;;;;;11.50;8.08;;;;;;;17.03;77.73;100508.02;1708796;83;21779;-63
2021/05/27 01:59:04;;;;;;;15.00;9.13;;;;;;;17.01;77.67;100512.41;1708840;83;21186;-63
2021/05/27 02:01:35;;;;;;;;;;;;;;;16.99;77.76;100507.66;1711296;83;21167;-63
2021/05/27 02:04:03;;;;;;;14.18;7.60;;;;;;;17.01;77.87;100504.65;1708917;83;20209;-63
2021/05/27 02:06:31;;;;;;;10.78;7.60;;;;;;;17.00;77.74;100502.97;1708832;83;21033;-63
2021/05/27 02:09:11;;;;;;;11.53;7.65;;;;;;;16.96;77.79;100500.37;1708899;83;21818;-64
2021/05/27 02:11:46;;;;;;;11.95;7.97;;;;;;;16.95;78.04;100497.30;1708730;83;21764;-63
2021/05/27 02:14:15;;;;;;;11.40;7.37;;;;;;;16.97;78.13;100500.67;1709338;83;21127;-64
2021/05/27 02:16:43;;;;;;;13.10;7.80;;;;;;;16.99;78.02;100495.73;1708894;83;21313;-63
2021/05/27 02:19:11;;;;;;;13.30;8.63;;;;;;;16.99;77.93;100494.36;1708868;82;21468;-62
2021/05/27 02:21:40;;;;;;;14.33;8.10;;;;;;;16.99;77.97;100496.58;1708812;82;21151;-63
2021/05/27 02:24:10;;;;;;;13.30;8.73;;;;;;;17.01;77.82;100499.11;1708882;83;21182;-63
2021/05/27 02:26:38;;;;;;;13.32;8.10;;;;;;;17.01;77.77;100505.49;1698470;83;21834;-64
2021/05/27 02:29:07;;;;;;;14.10;8.10;;;;;;;17.01;77.69;100502.73;1708618;83;21079;-64
2021/05/27 02:31:38;;;;;;;18.42;9.25;;;;;;;17.03;77.66;100502.48;1708857;83;21044;-64
2021/05/27 02:34:05;;;;;;;15.93;9.55;;;;;;;17.03;77.56;100502.48;1708888;84;21790;-63
2021/05/27 02:36:35;;;;;;;17.42;9.95;;;;;;;17.03;77.55;100499.72;1708852;82;21216;-63
2021/05/27 02:39:04;;;;;;;14.38;8.78;;;;;;;17.06;77.54;100493.70;1708910;84;21071;-64
2021/05/27 02:41:45;;;;;;;17.10;8.73;;;;;;;17.11;77.37;100489.68;1708819;83;21057;-64
2021/05/27 02:44:14;;;;;;;18.65;9.03;;;;;;;17.09;77.21;100488.53;1708792;83;21036;-63
2021/05/27 02:46:45;;;;;;;16.82;8.38;;;;;;;17.09;77.15;100487.16;1708782;83;21629;-64
2021/05/27 02:49:12;;;;;;;17.02;9.25;;;;;;;17.09;77.15;100494.61;1708887;83;21055;-63
2021/05/27 02:51:41;;;;;;;15.38;10.03;;;;;;;17.09;77.15;100500.15;1708879;82;21251;-63
2021/05/27 02:54:09;;;;;;;18.27;8.90;;;;;;;17.08;77.28;100481.85;1708814;82;21314;-63
2021/05/27 02:56:39;;;;;;;19.80;9.85;;;;;;;17.09;77.17;100483.54;1708995;84;21067;-63
2021/05/27 02:59:07;;;;;;;16.67;9.45;;;;;;;17.08;77.23;100480.47;1708892;82;21072;-63
2021/05/27 03:01:35;;;;;;;14.25;9.35;;;;;;;17.10;77.37;100479.69;1698471;84;21937;-63
2021/05/27 03:04:03;;;;;;;16.00;9.08;;;;;;;17.13;77.29;100477.83;1708837;83;21361;-63
2021/05/27 03:06:31;;;;;;;16.62;9.53;;;;;;;17.17;77.31;100485.96;1708849;84;21187;-64
2021/05/27 03:08:58;;;;;;;15.90;9.58;;;;;;;17.19;77.30;100481.02;1709011;84;21286;-63
2021/05/27 03:11:26;;;;;;;15.80;8.43;;;;;;;17.25;77.24;100479.22;1708873;82;21087;-63
2021/05/27 03:13:55;;;;;;;16.05;9.68;;;;;;;17.29;77.12;100478.50;1709460;83;21119;-63
2021/05/27 03:16:26;;;;;;;17.87;10.03;;;;;;;17.34;76.98;100474.47;1711166;83;21032;-63
2021/05/27 03:18:54;;;;;;;15.43;10.00;;;;;;;17.39;76.83;100469.59;1712615;83;21091;-63
2021/05/27 03:21:23;;;;;;;14.18;9.65;;;;;;;17.43;76.69;100470.26;1692845;83;21821;-63
2021/05/27 03:23:51;;;;;;;19.40;9.88;;;;;;;17.47;76.44;100468.39;1692919;83;21100;-62
2021/05/27 03:26:19;;;;;;;16.77;9.45;;;;;;;17.48;76.28;100461.22;1713393;83;21079;-63
2021/05/27 03:28:48;;;;;;;16.35;9.40;;;;;;;17.51;76.20;100464.05;1692880;83;21373;-63
2021/05/27 03:31:16;;;;;;;13.50;9.68;;;;;;;17.53;76.10;100471.03;1713439;83;21873;-63
2021/05/27 03:33:44;;;;;;;17.35;10.03;;;;;;;17.57;76.01;100475.04;1692861;83;21993;-63
2021/05/27 03:36:12;;;;;;;16.55;9.95;;;;;;;17.59;75.93;100474.80;1713419;83;21063;-63
2021/05/27 03:38:41;;;;;;;18.23;10.10;;;;;;;17.60;75.94;100478.71;1713438;82;21040;-63
2021/05/27 03:41:10;;;;;;;13.88;9.48;;;;;;;17.61;75.87;100479.02;1713425;83;21063;-63
2021/05/27 03:43:37;;;;;;;17.45;10.32;;;;;;;17.64;75.81;100480.45;1713400;83;21301;-64
2021/05/27 03:46:05;;;;;;;16.87;11.03;;;;;;;17.64;75.73;100474.37;1673114;85;21111;-62
2021/05/27 03:48:34;;;;;;;17.57;11.48;;;;;;;17.65;75.71;100471.91;1673838;85;21084;-63
2021/05/27 03:51:03;;;;;;;20.45;11.65;;;;;;;17.65;75.72;100475.22;1646719;86;21120;-63
2021/05/27 03:53:32;;;;;;;21.62;10.60;;;;;;;17.65;75.66;100473.28;1651107;86;21090;-65
2021/05/27 03:56:01;;;;;;;18.75;10.82;;;;;;;17.65;75.60;100473.83;1641910;86;21843;-63
2021/05/27 04:01:16;;;;;;;26.60;15.18;;;;;;;17.66;75.52;100473.63;1696913;82;21078;-63
2021/05/27 04:09:23;;;;;;;24.63;11.57;;;;;;;17.70;75.48;100465.66;1645849;85;21715;-63
2021/05/27 04:12:44;;;;;;;25.37;13.22;;;;;;;17.71;75.47;100470.13;1640774;87;21076;-63
2021/05/27 04:14:23;;;;;;;21.75;12.93;;;;;;;17.71;75.47;100464.58;1638155;87;21127;-62
2021/05/27 04:16:51;;;;;;;20.00;13.30;;;;;;;17.73;75.39;100472.95;1640994;87;21151;-63
2021/05/27 04:19:18;;;;;;;18.98;13.03;;;;;;;17.73;75.34;100470.17;1640971;87;21115;-63
2021/05/27 04:21:45;;;;;;;22.87;13.03;;;;;;;17.76;75.22;100470.23;1641002;87;21387;-62
2021/05/27 04:24:13;;;;;;;18.57;11.85;;;;;;;17.76;75.09;100471.63;1640897;87;21119;-65
2021/05/27 04:26:40;;;;;;;20.00;11.22;;;;;;;17.78;75.04;100465.28;1641100;87;21228;-65
2021/05/27 04:29:08;;;;;;;19.40;12.20;;;;;;;17.78;75.05;100461.13;1641176;86;21732;-62
2021/05/27 04:31:36;;;;;;;22.27;13.48;;;;;;;17.78;75.21;100466.67;1641167;87;21080;-63
2021/05/27 04:34:03;;;;;;;23.27;13.65;;;;;;;17.80;75.35;100467.27;1641228;87;21087;-64
2021/05/27 04:36:31;;;;;;;23.45;14.18;;;;;;;17.81;75.43;100461.19;1641193;86;21095;-63
2021/05/27 04:38:58;;;;;;;17.90;12.18;;;;;;;17.80;75.53;100463.11;1641191;87;21095;-63
2021/05/27 04:41:26;;;;;;;14.87;10.13;;;;;;;17.81;75.73;100462.03;1641308;87;21770;-64
2021/05/27 04:43:54;;;;;;;18.00;10.95;;;;;;;17.83;75.73;100461.24;1641208;86;21131;-64
2021/05/27 04:46:22;;;;;;;18.00;13.30;;;;;;;17.85;75.79;100467.38;1641204;87;21733;-64
2021/05/27 04:48:50;;;;;;;17.12;13.28;;;;;;;17.90;75.83;100473.04;1641196;87;21332;-62
2021/05/27 04:51:17;;;;;;;17.85;11.70;;;;;;;17.93;75.80;100466.16;1641214;87;21111;-63
2021/05/27 04:53:45;;;;;;;18.40;13.22;;;;;;;17.98;75.53;100460.19;1641169;87;21303;-64
2021/05/27 04:56:13;;;;;;;14.68;11.05;;;;;;;18.03;75.27;100464.99;1641212;87;21075;-64
2021/05/27 04:58:41;;;;;;;13.65;10.53;;;;;;;18.09;75.04;100465.94;1641354;87;21052;-62
2021/05/27 05:01:08;;;;;;;16.52;11.75;;;;;;;18.12;74.89;100464.91;1641241;87;21080;-63
2021/05/27 05:03:37;;;;;;;16.15;10.95;;;;;;;18.18;74.67;100464.47;1641143;87;21379;-63
2021/05/27 05:06:04;;;;;;;17.15;11.33;;;;;;;18.24;74.37;100464.90;1641295;87;21103;-63
2021/05/27 05:08:32;;;;;;;18.10;9.73;;;;;;;18.28;74.22;100457.77;1620509;87;21355;-64
2021/05/27 05:11:00;;;;;;;14.93;10.53;;;;;;;18.30;74.01;100459.75;1641275;87;21315;-63
2021/05/27 05:13:29;;;;;;;30.20;26.40;;;;;;;18.28;73.81;100461.93;1641229;87;21128;-63
2021/05/27 05:15:58;;;;;;;18.20;13.48;;;;;;;18.29;73.88;100460.84;1641087;87;21099;-63
2021/05/27 05:18:26;;;;;;;19.37;12.55;;;;;;;18.32;73.88;100460.34;1641226;87;21071;-64
2021/05/27 05:20:54;;;;;;;13.98;10.03;;;;;;;18.36;73.66;100461.53;1641090;86;21831;-64
2021/05/27 05:23:24;;;;;;;13.90;10.10;;;;;;;18.41;73.26;100463.02;1641313;87;21100;-65
2021/05/27 05:25:51;;;;;;;11.53;8.43;;;;;;;18.44;72.82;100461.14;1641116;87;21194;-64
2021/05/27 05:28:18;;;;;;;16.50;10.00;;;;;;;18.47;72.50;100452.86;1641151;87;21186;-64
2021/05/27 05:30:45;;;;;;;16.48;11.05;;;;;;;18.49;72.20;100457.08;1641110;87;21263;-63
2021/05/27 05:33:13;;;;;;;18.80;11.12;;;;;;;18.56;72.08;100461.92;1641126;87;21740;-63
2021/05/27 05:35:40;;;;;;;15.40;9.40;;;;;;;18.65;71.97;100461.01;1641066;87;21756;-63
2021/05/27 05:38:08;;;;;;;13.55;8.65;;;;;;;18.74;71.55;100462.28;1641183;87;21182;-64
2021/05/27 05:40:36;;;;;;;14.28;9.18;;;;;;;18.81;70.98;100455.19;1641164;87;21115;-67
2021/05/27 05:43:03;;;;;;;10.30;8.23;;;;;;;18.88;70.58;100444.79;1641352;87;21832;-65
2021/05/27 05:45:31;;;;;;;14.40;8.70;;;;;;;18.96;70.01;100445.77;1641264;86;21213;-63
2021/05/27 05:47:59;;;;;;;13.15;8.28;;;;;;;19.02;69.70;100439.20;1641166;87;21055;-64
2021/05/27 05:50:52;;;;;;;13.90;8.38;;;;;;;19.10;69.04;100447.66;1641211;87;21084;-65
2021/05/27 05:53:21;;;;;;;15.58;8.60;;;;;;;19.19;68.38;100450.30;1640285;87;21891;-64
2021/05/27 05:55:51;;;;;;;15.90;8.78;;;;;;;19.28;67.55;100444.62;1641271;86;21119;-64
2021/05/27 05:58:18;;;;;;;15.13;8.80;;;;;;;19.33;67.38;100434.97;1641220;87;21203;-64
2021/05/27 06:00:47;;;;;;;14.85;9.13;;;;;;;19.40;67.27;100441.19;1641310;87;21354;-64
2021/05/27 06:03:14;;;;;;;15.20;9.13;;;;;;;19.48;67.25;100441.30;1641219;87;21096;-66
2021/05/27 06:06:00;;;;;;;15.85;10.10;;;;;;;19.60;66.93;100437.94;1641194;87;21305;-63
2021/05/27 06:08:46;;;;;;;21.62;10.13;;;;;;;19.69;66.43;100441.11;1641147;87;21072;-63
2021/05/27 06:11:14;;;;;;;14.00;9.35;;;;;;;19.75;66.21;100438.14;1641181;87;21468;-63
2021/05/27 06:13:41;;;;;;;14.50;8.83;;;;;;;19.80;66.06;100431.27;1641231;87;21080;-63
2021/05/27 06:16:11;;;;;;;13.93;8.43;;;;;;;19.87;65.77;100431.91;1651679;86;21097;-64
2021/05/27 06:18:39;;;;;;;11.15;7.40;;;;;;;19.93;65.35;100432.27;1653879;86;21502;-63
2021/05/27 06:21:25;;;;;;;14.23;7.00;;;;;;;19.98;64.44;100432.04;1653865;86;22071;-64
2021/05/27 06:23:53;;;;;;;13.90;7.37;;;;;;;20.02;63.97;100437.37;1654018;86;21314;-64
2021/05/27 06:26:21;;;;;;;10.18;6.37;;;;;;;20.05;63.82;100432.69;1653908;86;21136;-64
2021/05/27 06:28:48;;;;;;;8.33;6.47;;;;;;;20.11;63.42;100438.59;1653905;86;21332;-63
2021/05/27 06:31:15;;;;;;;10.18;6.75;;;;;;;20.15;62.94;100436.98;1653906;86;21830;-63
2021/05/27 06:33:44;;;;;;;10.70;6.10;;;;;;;20.24;62.73;100435.45;1653871;86;21048;-64
2021/05/27 06:36:12;;;;;;;8.43;5.37;;;;;;;20.33;62.39;100433.05;1653877;86;21322;-64
2021/05/27 06:38:39;;;;;;;8.00;5.75;;;;;;;20.36;61.96;100439.48;1653673;86;21091;-64
2021/05/27 06:41:07;;;;;;;11.45;6.50;;;;;;;20.37;61.83;100436.98;1653699;86;21115;-62
2021/05/27 06:43:35;;;;;;;10.08;7.55;;;;;;;20.38;61.76;100436.72;1653832;86;21107;-63
2021/05/27 06:46:03;;;;;;;11.78;6.42;;;;;;;20.42;61.34;100444.87;1674206;85;21106;-62
2021/05/27 06:48:30;;;;;;;12.33;6.92;;;;;;;20.48;60.54;100452.72;1678618;85;21186;-63
2021/05/27 06:50:58;;;;;;;10.72;7.08;;;;;;;20.60;60.17;100458.13;1681434;85;21082;-63
2021/05/27 06:53:26;;;;;;;9.38;6.22;;;;;;;20.68;59.97;100448.76;1655882;85;21068;-64
2021/05/27 06:55:54;;;;;;;8.88;6.67;;;;;;;20.73;60.28;100452.14;1653839;86;21360;-62
2021/05/27 06:58:21;;;;;;;8.75;6.60;;;;;;;20.77;60.53;100454.69;1699569;83;21280;-63
2021/05/27 07:00:48;;;;;;;7.83;5.83;;;;;;;20.84;60.54;100445.59;1725452;81;21169;-64
2021/05/27 07:03:18;;;;;;;10.28;5.40;;;;;;;20.92;59.98;100439.55;1726689;81;21342;-64
2021/05/27 07:05:45;;;;;;;7.00;5.40;;;;;;;20.97;59.55;100439.59;1706584;82;21137;-63
2021/05/27 07:08:12;;;;;;;8.10;5.33;;;;;;;21.01;59.08;100439.34;1706615;84;21038;-62
2021/05/27 07:10:41;;;;;;;7.33;5.50;;;;;;;21.00;58.78;100432.64;1727173;82;21070;-63
2021/05/27 07:13:08;;;;;;;7.55;5.15;;;;;;;21.04;58.60;100432.40;1736360;82;21046;-64
2021/05/27 07:15:36;;;;;;;6.53;5.20;;;;;;;21.11;58.33;100429.67;1730368;82;21210;-63
2021/05/27 07:18:04;;;;;;;9.15;5.40;;;;;;;21.21;58.02;100429.75;1732027;82;21066;-64
2021/05/27 07:20:32;;;;;;;8.10;5.70;;;;;;;21.26;57.68;100433.72;1699202;83;21083;-62
2021/05/27 07:22:59;;;;;;;7.58;5.83;;;;;;;21.25;57.45;100434.82;1699748;83;21777;-63
2021/05/27 07:25:27;;;;;;;14.73;6.30;;;;;;;21.26;57.61;100435.11;1706072;83;21197;-64
2021/05/27 07:27:56;;;;;;;8.20;5.50;;;;;;;21.32;57.53;100436.27;1705930;84;21052;-63
2021/05/27 07:30:30;;;;;;;8.73;5.33;;;;;;;21.40;57.41;100427.41;1705917;82;21160;-64
2021/05/27 07:32:55;;;;;;;8.63;5.20;;;;;;;21.53;57.14;100423.89;1710845;83;21338;-63
2021/05/27 07:35:25;;;;;;;8.43;5.50;;;;;;;21.68;56.33;100419.80;1723009;82;21074;-64
2021/05/27 07:37:54;;;;;;;7.55;5.40;;;;;;;21.86;56.02;100426.86;1722841;83;21076;-64
2021/05/27 07:40:24;;;;;;;9.25;5.47;;;;;;;22.04;55.33;100419.44;1723004;83;21227;-65
2021/05/27 07:42:52;;;;;;;7.33;5.85;;;;;;;22.16;54.98;100410.30;1723144;83;21071;-65
2021/05/27 07:45:19;;;;;;;10.35;5.83;;;;;;;22.24;54.85;100408.38;1722841;83;21071;-64
2021/05/27 07:47:47;;;;;;;10.18;5.20;;;;;;;22.30;54.82;100407.83;1711314;82;21329;-64
2021/05/27 07:50:14;;;;;;;6.67;4.92;;;;;;;22.37;54.64;100407.84;1710554;83;21232;-65
2021/05/27 07:52:42;;;;;;;9.30;5.60;;;;;;;22.50;54.69;100399.50;1703873;82;21065;-64
2021/05/27 07:55:11;;;;;;;10.68;5.75;;;;;;;22.63;54.05;100410.69;1727449;82;21055;-64
2021/05/27 07:57:38;;;;;;;9.30;5.33;;;;;;;22.69;53.38;100406.78;1722932;83;21100;-65
2021/05/27 08:00:08;;;;;;;10.08;5.92;;;;;;;22.73;52.86;100407.91;1717552;82;21112;-65
2021/05/27 08:02:43;;;;;;;8.88;5.50;;;;;;;22.72;52.79;100402.87;1681200;85;21043;-63
2021/05/27 08:05:12;;;;;;;10.50;5.62;;;;;;;22.69;53.01;100395.05;1696191;83;21410;-65
2021/05/27 08:07:39;;;;;;;7.95;5.53;;;;;;;22.71;53.08;100400.36;1703241;83;21068;-64
2021/05/27 08:10:09;;;;;;;9.18;5.42;;;;;;;22.72;53.09;100396.45;1712431;82;21804;-67
2021/05/27 08:12:37;;;;;;;6.83;4.72;;;;;;;22.74;53.05;100394.22;1708079;83;21323;-68
2021/05/27 08:15:07;;;;;;;7.12;4.83;;;;;;;22.66;53.08;100388.63;1705493;83;21333;-71
2021/05/27 08:17:34;;;;;;;8.10;4.58;;;;;;;22.60;53.32;100388.34;1709601;83;21086;-71
2021/05/27 08:20:04;;;;;;;7.25;5.47;;;;;;;22.59;53.56;100388.06;1710384;83;21331;-65
2021/05/27 08:22:31;;;;;;;10.30;5.60;;;;;;;22.57;53.58;100384.70;1722270;83;21056;-64
2021/05/27 08:24:59;;;;;;;8.98;6.12;;;;;;;22.56;53.89;100383.59;1714271;83;21267;-62
2021/05/27 08:27:30;;;;;;;10.88;7.00;;;;;;;22.61;53.67;100382.20;1717603;83;21836;-69
2021/05/27 08:30:00;;;;;;;10.18;5.65;;;;;;;22.67;53.59;100381.08;1722423;82;21272;-74
2021/05/27 08:32:29;;;;;;;11.18;6.28;;;;;;;22.70;53.36;100387.51;1689177;82;21216;-67
2021/05/27 08:34:57;;;;;;;9.23;6.17;;;;;;;22.70;53.29;100379.13;1705083;82;21169;-66
2021/05/27 08:37:24;;;;;;;10.40;5.78;;;;;;;22.72;53.09;100385.27;1707605;82;21057;-65
2021/05/27 08:39:52;;;;;;;15.53;7.25;;;;;;;22.71;53.17;100387.23;1697179;84;21297;-65
2021/05/27 08:42:19;;;;;;;8.45;6.12;;;;;;;22.78;53.12;100382.80;1696857;82;21868;-73
2021/05/27 08:44:50;;;;;;;9.58;6.28;;;;;;;22.88;52.86;100381.44;1696822;82;21084;-66
2021/05/27 08:47:17;;;;;;;8.85;5.92;;;;;;;22.98;52.36;100381.42;1695743;83;21180;-70
2021/05/27 08:49:50;;;;;;;11.30;5.45;;;;;;;23.09;51.85;100378.06;1692292;82;21074;-67
2021/05/27 08:52:27;;;;;;;10.50;6.00;;;;;;;23.21;51.82;100373.02;1695522;84;21251;-68
2021/05/27 08:55:08;;;;;;;8.30;5.92;;;;;;;23.32;51.63;100369.08;1693124;83;21276;-68
2021/05/27 08:57:40;;;;;;;16.15;7.55;;;;;;;23.37;51.18;100370.47;1694786;82;21195;-70
2021/05/27 09:00:22;;;;;;;11.40;6.33;;;;;;;23.38;51.19;100375.50;1696351;83;21423;-66
2021/05/27 09:03:07;;;;;;;9.43;5.92;;;;;;;23.38;51.32;100374.94;1690935;83;21114;-67
2021/05/27 09:05:42;;;;;;;9.33;6.33;;;;;;;23.33;51.13;100377.74;1675856;83;21145;-68
2021/05/27 09:08:29;;;;;;;14.13;5.80;;;;;;;23.23;51.16;100383.36;1670934;83;21745;-68
2021/05/27 09:11:07;;;;;;;11.03;5.97;;;;;;;23.15;51.11;100387.28;1674666;82;21883;-71
2021/05/27 09:13:35;;;;;;;;;;;;;;;23.00;51.14;100388.97;1670368;84;21084;-66
2021/05/27 09:16:09;;;;;;;10.30;5.45;;;;;;;22.90;51.58;100397.36;1670864;84;20325;-65
2021/05/27 09:18:40;;;;;;;7.78;5.72;;;;;;;22.81;52.15;100389.81;1668444;85;21810;-67
2021/05/27 09:21:10;;;;;;;8.43;6.30;;;;;;;22.71;52.56;100385.84;1670926;82;21298;-70
2021/05/27 09:23:51;;;;;;;9.45;6.25;;;;;;;22.64;52.91;100390.02;1672882;84;21090;-69
2021/05/27 09:26:19;;;;;;;7.78;5.58;;;;;;;22.59;52.99;100390.85;1668036;84;21328;-67
2021/05/27 09:28:48;;;;;;;10.13;6.15;;;;;;;22.55;53.33;100387.50;1674413;84;21826;-65
2021/05/27 09:31:19;;;;;;;10.75;6.65;;;;;;;22.55;53.57;100387.50;1676284;84;21114;-66
2021/05/27 09:34:00;;;;;;;8.10;5.65;;;;;;;22.56;53.78;100380.23;1672292;83;21092;-67
2021/05/27 09:36:27;;;;;;;10.48;5.97;;;;;;;22.59;53.82;100377.45;1666963;84;21943;-67
2021/05/27 09:38:59;;;;;;;7.83;5.90;;;;;;;22.57;54.02;100376.89;1670896;84;21067;-65
2021/05/27 09:41:29;;;;;;;11.03;5.75;;;;;;;22.54;53.97;100370.45;1668297;83;21109;-64
2021/05/27 09:44:08;;;;;;;9.20;5.90;;;;;;;22.53;54.14;100365.44;1673361;84;21195;-65
2021/05/27 09:46:53;;;;;;;7.40;5.92;;;;;;;22.54;54.16;100369.90;1673207;83;21295;-66
2021/05/27 09:49:25;;;;;;;12.58;6.47;;;;;;;22.63;54.11;100370.19;1640868;85;21219;-67
2021/05/27 09:51:56;;;;;;;11.38;6.08;;;;;;;22.76;53.79;100369.11;1668346;84;21096;-66
2021/05/27 09:54:24;;;;;;;9.35;6.30;;;;;;;22.88;53.71;100370.25;1668200;84;21128;-65
2021/05/27 09:56:51;;;;;;;10.85;6.47;;;;;;;22.99;53.64;100370.53;1672385;84;21057;-67
2021/05/27 09:59:19;;;;;;;11.12;6.28;;;;;;;23.11;53.49;100365.20;1676399;84;21325;-65
2021/05/27 10:02:14;;;;;;;8.55;5.87;;;;;;;23.24;53.40;100362.66;1670714;84;21098;-66
2021/05/27 10:05:02;;;;;;;10.18;5.50;;;;;;;23.36;53.15;100358.16;1665072;84;21840;-65
2021/05/27 10:07:40;;;;;;;12.23;5.97;;;;;;;23.43;53.21;100356.50;1676524;84;21107;-67
2021/05/27 10:10:11;;;;;;;7.65;5.75;;;;;;;23.40;53.03;100349.48;1613022;87;21386;-67
2021/05/27 10:12:44;;;;;;;7.87;6.00;;;;;;;23.33;53.05;100357.33;1671851;84;21451;-66
2021/05/27 10:15:14;;;;;;;11.22;7.00;;;;;;;23.23;53.34;100355.95;1672510;84;21209;-66
2021/05/27 10:17:42;;;;;;;8.28;6.85;;;;;;;23.15;53.49;100356.53;1671754;82;21058;-67
2021/05/27 10:20:13;;;;;;;8.90;6.90;;;;;;;23.05;53.51;100358.22;1665461;83;21146;-65
2021/05/27 10:22:43;;;;;;;9.58;7.05;;;;;;;22.97;53.71;100356.00;1667328;84;21065;-64
2021/05/27 10:25:15;;;;;;;10.85;6.78;;;;;;;22.87;54.07;100354.61;1671944;84;21080;-65
2021/05/27 10:27:46;;;;;;;10.60;7.87;;;;;;;22.80;54.35;100356.84;1671080;84;21618;-63
2021/05/27 10:30:14;;;;;;;15.45;8.20;;;;;;;22.72;54.79;100351.20;1670463;84;21084;-63
2021/05/27 10:32:46;;;;;;;12.65;8.05;;;;;;;22.66;54.98;100357.06;1675517;84;21115;-63
2021/05/27 10:35:13;;;;;;;11.57;8.03;;;;;;;22.57;55.24;100359.57;1682416;83;21757;-63
2021/05/27 10:37:45;;;;;;;12.85;8.28;;;;;;;22.51;55.60;100361.23;1683434;84;21106;-66
2021/05/27 10:40:23;;;;;;;14.63;8.03;;;;;;;22.45;55.78;100361.23;1673350;83;21103;-63
2021/05/27 10:43:13;;;;;;;11.48;8.78;;;;;;;22.39;55.83;100362.34;1675254;84;21219;-67
2021/05/27 10:46:04;;;;;;;11.85;9.40;;;;;;;22.34;56.07;100355.91;1677692;84;21043;-64
2021/05/27 10:48:42;;;;;;;14.18;10.05;;;;;;;22.29;56.26;100352.55;1669977;84;21053;-64
2021/05/27 10:51:28;;;;;;;16.15;10.58;;;;;;;22.25;56.50;100345.84;1664170;83;21116;-62
2021/05/27 10:53:55;;;;;;;15.18;9.98;;;;;;;22.26;56.63;100341.94;1669864;84;21528;-64
2021/05/27 10:56:37;;;;;;;16.00;9.95;;;;;;;22.27;56.77;100342.78;1668833;84;21054;-64
2021/05/27 10:59:07;;;;;;;13.72;10.43;;;;;;;22.29;56.71;100341.95;1671696;84;21087;-62
2021/05/27 11:01:43;;;;;;;18.45;11.00;;;;;;;22.28;56.76;100335.53;1672623;84;21090;-63
2021/05/27 11:04:33;;;;;;;15.13;10.43;;;;;;;22.27;56.77;100337.20;1671130;84;21479;-65
2021/05/27 11:07:23;;;;;;;17.73;10.48;;;;;;;22.26;56.87;100336.36;1674674;84;21127;-64
2021/05/27 11:09:54;;;;;;;23.92;11.43;;;;;;;22.23;57.07;100338.86;1673497;84;21145;-65
2021/05/27 11:12:28;;;;;;;19.23;13.40;;;;;;;22.22;58.20;100346.96;1676036;83;21345;-65
2021/05/27 11:15:04;;;;;;;14.40;8.25;;;;;;;22.19;59.07;100354.48;1673512;84;21772;-65
2021/05/27 11:17:33;;;;;;;14.58;6.45;;;;;;;22.11;59.24;100367.87;1671220;84;21079;-63
2021/05/27 11:20:08;;;;;;;7.37;5.15;;;;;;;22.01;59.71;100364.14;1674552;84;21058;-66
2021/05/27 11:22:56;;;;;;;9.88;5.87;;;;;;;21.92;60.69;100369.41;1677458;84;21077;-63
2021/05/27 11:25:27;;;;;;;8.88;5.97;;;;;;;21.80;61.81;100365.47;1668149;84;21303;-66
2021/05/27 11:28:04;;;;;;;7.72;6.80;;;;;;;21.63;63.16;100383.52;1673647;83;21951;-67
2021/05/27 11:30:40;;;;;;;9.48;7.00;;;;;;;21.38;64.72;100382.80;1671954;84;21064;-65
2021/05/27 11:33:29;;;;;;;9.20;6.83;;;;;;;21.04;66.62;100383.09;1665795;83;21111;-65
2021/05/27 11:36:04;;;;;;;10.93;6.47;;;;;;;20.70;68.58;100393.64;1666219;84;21233;-77
2021/05/27 11:38:36;;;;;;;7.87;5.50;;;;;;;20.51;70.64;100386.78;1666674;84;21084;-75
2021/05/27 11:41:07;;;;;;;10.23;7.10;;;;;;;20.36;71.68;100397.18;1673615;84;21063;-71
2021/05/27 11:43:42;;;;;;;11.65;7.25;;;;;;;20.20;72.56;100400.34;1666575;84;21759;-72